Latest Weather Observations for Mount Magnet Airport

IDW60801

Issued at 4:33 pm WST Thursday 27 April 2017 (issued every 30 minutes, with the page automatically refreshed every 10 minutes)

About weather observations | Map of weather stations | Latest weather observations for WA | Other Formats
Station Details ID: 007600 Name: MOUNT MAGNET AERO Lat: -28.12 Lon: 117.84 Height: 407.0 m
Data from the previous 72 hours. | See also: Recent months at Mount Magnet Airport
Date/Time
WST
Temp
°C
App
Temp
°C
Dew
Point
°C
Rel
Hum
%
Delta-T
°C
Wind Press
QNH
hPa
Press
MSL
hPa
Rain since
9am
mm
Dir  Spd
km/h
Gust
km/h
Spd
kts
Gust
kts
27/04:30pm 22.3 17.8 4.4 31 8.9 ESE 17 24 9 13 1022.6 1020.7 0.0
27/04:00pm 22.8 18.4 4.8 31 9.1 SE 17 26 9 14 1022.4 1020.5 0.0
27/03:30pm 22.8 19.2 4.8 31 9.1 SE 13 20 7 11 1022.5 1020.6 0.0
27/03:00pm 22.8 18.8 4.8 31 9.1 ESE 15 24 8 13 1022.6 1020.7 0.0
27/02:30pm 23.1 20.3 5.1 31 9.2 ESE 9 17 5 9 1022.7 1020.8 0.0
27/02:00pm 23.0 19.8 5.0 31 9.1 SE 11 19 6 10 1023.0 1021.1 0.0
27/01:30pm 22.8 19.3 5.3 32 8.9 ENE 13 20 7 11 1023.2 1021.3 0.0
27/01:00pm 22.1 17.8 5.1 33 8.6 E 17 22 9 12 1023.5 1021.7 0.0
27/12:30pm 21.8 17.4 4.8 33 8.5 E 17 28 9 15 1024.3 1022.4 0.0
27/12:00pm 22.3 17.8 6.1 35 8.3 ENE 19 28 10 15 1024.9 1023.0 0.0
27/11:30am 21.8 17.0 5.7 35 8.2 E 20 28 11 15 1025.4 1023.5 0.0
27/11:00am 21.2 16.5 5.9 37 7.8 ENE 20 28 11 15 1025.9 1024.1 0.0
27/10:30am 21.2 16.5 5.9 37 7.8 ENE 20 30 11 16 1026.1 1024.3 0.0
27/10:00am 19.8 15.1 6.2 41 6.9 ENE 20 26 11 14 1026.5 1024.7 0.0
27/09:30am 19.0 14.4 6.5 44 6.4 ENE 20 28 11 15 1026.9 1025.0 0.0
27/09:00am 17.3 13.4 7.1 51 5.2 ENE 17 20 9 11 1027.1 1025.2 0.0
27/08:30am 15.3 12.7 7.6 60 3.9 E 11 17 6 9 1027.2 1025.3 0.0
27/08:00am 13.9 11.7 7.9 67 3.0 E 9 11 5 6 1027.1 1025.2 0.0
27/07:30am 13.4 11.2 7.8 69 2.8 ESE 9 11 5 6 1026.7 1024.9 0.0
27/07:00am 12.3 10.6 7.6 73 2.3 E 6 7 3 4 1026.4 1024.6 0.0
27/06:30am 12.6 10.9 7.5 71 2.5 E 6 7 3 4 1026.3 1024.5 0.0
27/06:00am 13.1 11.2 7.5 69 2.8 ESE 7 9 4 5 1026.0 1024.2 0.0
27/05:30am 13.5 11.2 7.5 67 3.0 E 9 11 5 6 1025.8 1024.0 0.0
27/05:00am 14.2 11.5 7.5 64 3.4 E 11 15 6 8 1025.6 1023.8 0.0
27/04:30am 14.6 11.6 7.6 63 3.5 E 13 17 7 9 1025.3 1023.4 0.0
27/04:00am 15.0 11.6 7.5 61 3.8 E 15 19 8 10 1025.2 1023.3 0.0
27/03:30am 15.3 11.9 7.6 60 3.9 E 15 20 8 11 1025.3 1023.4 0.0
27/03:00am 15.8 12.0 7.6 58 4.2 E 17 22 9 12 1025.2 1023.3 0.0
27/02:30am 16.1 12.3 7.6 57 4.3 E 17 22 9 12 1025.3 1023.4 0.0
27/02:00am 16.5 12.7 7.4 55 4.6 E 17 20 9 11 1025.4 1023.5 0.0
27/01:30am 16.7 13.2 7.1 53 4.9 E 15 20 8 11 1025.2 1023.3 0.0
27/01:00am 16.7 13.6 7.1 53 4.8 E 13 19 7 10 1025.2 1023.3 0.0
27/12:30am 16.7 13.5 6.8 52 5.0 E 13 17 7 9 1025.2 1023.3 0.0
27/12:00am 16.9 13.3 6.7 51 5.1 E 15 20 8 11 1025.2 1023.3 0.0
 
Date/Time
WST
Temp
°C
App
Temp
°C
Dew
Point
°C
Rel
Hum
%
Delta-T
°C
Wind Press
QNH
hPa
Press
MSL
hPa
Rain since
9am
mm
Dir  Spd
km/h
Gust
km/h
Spd
kts
Gust
kts
26/11:30pm 17.3 14.0 6.5 49 5.4 E 13 17 7 9 1025.2 1023.3 0.0
26/11:00pm 17.5 14.2 6.4 48 5.6 E 13 17 7 9 1025.4 1023.5 0.0
26/10:30pm 17.3 14.0 6.5 49 5.4 ESE 13 17 7 9 1025.6 1023.8 0.0
26/10:00pm 17.4 14.5 6.3 48 5.5 ESE 11 15 6 8 1025.7 1023.9 0.0
26/09:30pm 17.8 14.9 6.3 47 5.8 E 11 13 6 7 1025.8 1024.0 0.0
26/09:00pm 18.2 15.0 6.7 47 5.8 ESE 13 15 7 8 1025.7 1023.9 0.0
26/08:30pm 18.7 15.0 6.5 45 6.2 ESE 15 19 8 10 1025.4 1023.5 0.0
26/08:00pm 19.0 15.7 6.2 43 6.4 ESE 13 17 7 9 1025.4 1023.5 0.0
26/07:30pm 19.4 16.4 5.8 41 6.9 SE 11 15 6 8 1025.2 1023.3 0.0
26/07:00pm 20.1 16.5 5.0 37 7.5 SE 13 15 7 8 1024.7 1022.8 0.0
26/06:30pm 20.8 16.3 4.4 34 8.1 ESE 17 20 9 11 1024.4 1022.5 0.0
26/06:00pm 21.1 16.5 3.8 32 8.4 E 17 26 9 14 1024.0 1022.2 0.0
26/05:30pm 21.6 16.1 4.2 32 8.6 E 22 28 12 15 1023.6 1021.8 0.0
26/05:00pm 22.0 16.9 4.1 31 8.8 E 20 26 11 14 1023.5 1021.7 0.0
26/04:30pm 22.4 18.2 4.0 30 9.1 E 15 20 8 11 1023.2 1021.3 0.0
26/04:00pm 22.4 17.9 4.0 30 9.1 E 17 22 9 12 1023.3 1021.4 0.0
26/03:30pm 22.4 17.3 4.0 30 9.1 ESE 20 30 11 16 1023.3 1021.4 0.0
26/03:00pm 22.5 17.5 3.6 29 9.3 E 19 28 10 15 1023.4 1021.6 0.0
26/02:30pm 22.5 17.3 3.6 29 9.3 E 20 28 11 15 1023.5 1021.7 0.0
26/02:00pm 23.1 18.0 4.1 29 9.5 ENE 20 35 11 19 1023.5 1021.7 0.0
26/01:30pm 23.6 18.2 4.5 29 9.7 E 22 32 12 17 1023.7 1021.9 0.0
26/01:00pm 23.0 17.5 4.0 29 9.4 ENE 22 32 12 17 1024.0 1022.2 0.0
26/12:30pm 22.6 17.6 4.6 31 9.1 ENE 20 28 11 15 1024.5 1022.6 0.0
26/12:00pm 21.7 15.8 3.9 31 8.7 ENE 24 35 13 19 1025.1 1023.2 0.0
26/11:30am 21.7 15.4 3.9 31 8.8 NE 26 33 14 18 1025.7 1023.9 0.0
26/11:00am 21.6 16.1 4.2 32 8.6 ENE 22 33 12 18 1025.9 1024.1 0.0
26/10:30am 21.2 15.9 5.1 35 8.1 ENE 22 32 12 17 1026.0 1024.2 0.0
26/10:00am 20.2 15.4 5.4 38 7.4 ENE 20 28 11 15 1026.2 1024.4 0.0
26/09:30am 19.0 14.4 5.8 42 6.6 ENE 19 28 10 15 1026.4 1024.6 0.0
26/09:00am 17.6 14.6 7.6 52 5.1 E 13 17 7 9 1026.3 1024.5 0.0
26/08:30am 16.7 13.8 8.1 57 4.5 E 13 19 7 10 1026.4 1024.6 0.0
26/08:00am 15.8 13.8 8.5 62 3.8 E 9 13 5 7 1026.1 1024.3 0.0
26/07:30am 14.9 13.4 8.6 66 3.3 E 6 7 3 4 1025.7 1023.9 0.0
26/07:00am 14.2 12.8 8.8 70 2.8 E 6 7 3 4 1025.2 1023.3 0.0
26/06:30am 14.1 12.5 8.9 71 2.7 E 7 9 4 5 1024.9 1023.0 0.0
26/06:00am 13.9 12.1 9.3 74 2.4 ESE 9 11 5 6 1024.7 1022.8 0.0
26/05:30am 14.1 11.8 9.1 72 2.6 ESE 11 15 6 8 1024.6 1022.7 0.0
26/05:00am 13.9 10.9 9.3 74 2.4 ESE 15 20 8 11 1024.6 1022.7 0.0
26/04:30am 13.7 11.5 9.4 75 2.2 ESE 11 13 6 7 1024.4 1022.5 0.0
26/04:00am 13.5 11.7 9.4 76 2.1 ESE 9 11 5 6 1024.3 1022.4 0.0
26/03:30am 13.4 12.0 9.6 78 2.0 SE 7 9 4 5 1024.3 1022.4 0.0
26/03:00am 13.8 12.4 9.5 75 2.2 SE 7 9 4 5 1024.5 1022.6 0.0
26/02:30am 14.5 13.0 9.1 70 2.8 ESE 7 9 4 5 1024.5 1022.6 0.0
26/02:00am 14.6 13.2 9.0 69 2.9 ESE 6 7 3 4 1024.6 1022.7 0.0
26/01:30am 15.2 13.8 8.9 66 3.3 SE 6 7 3 4 1024.1 1022.3 0.0
26/01:00am 16.1 14.3 8.1 59 4.1 E 7 9 4 5 1024.4 1022.5 0.0
26/12:30am 16.6 14.4 7.8 56 4.5 E 9 11 5 6 1024.4 1022.5 0.0
26/12:00am 17.4 15.2 7.7 53 5.0 ENE 9 11 5 6 1024.4 1022.5 0.0
 
Date/Time
WST
Temp
°C
App
Temp
°C
Dew
Point
°C
Rel
Hum
%
Delta-T
°C
Wind Press
QNH
hPa
Press
MSL
hPa
Rain since
9am
mm
Dir  Spd
km/h
Gust
km/h
Spd
kts
Gust
kts
25/11:30pm 18.4 15.7 7.5 49 5.6 ENE 11 15 6 8 1024.5 1022.6 0.0
25/11:00pm 19.1 15.6 7.2 46 6.1 ENE 15 20 8 11 1024.1 1022.3 0.0
25/10:30pm 19.6 16.1 7.0 44 6.5 ENE 15 19 8 10 1024.3 1022.4 0.0
25/10:00pm 19.4 16.7 7.2 45 6.3 E 11 13 6 7 1024.3 1022.4 0.0
25/09:30pm 19.9 17.1 7.0 43 6.7 E 11 15 6 8 1024.3 1022.4 0.0
25/09:00pm 20.5 17.3 6.8 41 7.1 E 13 17 7 9 1023.8 1022.0 0.0
25/08:30pm 20.9 17.2 6.4 39 7.5 E 15 19 8 10 1023.7 1021.9 0.0
25/08:00pm 21.4 17.3 6.1 37 7.8 ESE 17 22 9 12 1023.6 1021.8 0.0
25/07:30pm 21.6 17.5 6.3 37 7.9 ESE 17 22 9 12 1023.3 1021.4 0.0
25/07:00pm 22.1 18.0 6.3 36 8.1 ESE 17 22 9 12 1023.1 1021.2 0.0
25/06:30pm 22.6 18.5 6.4 35 8.4 ESE 17 20 9 11 1022.6 1020.7 0.0
25/06:00pm 23.3 19.2 6.1 33 8.9 ESE 17 26 9 14 1022.1 1020.2 0.0
25/05:30pm 23.8 19.1 6.1 32 9.2 ESE 20 24 11 13 1021.9 1020.0 0.0
25/05:00pm 24.3 19.8 6.1 31 9.5 ESE 19 26 10 14 1021.8 1019.9 0.0
25/04:30pm 24.5 19.7 5.8 30 9.7 ESE 20 30 11 16 1021.5 1019.7 0.0
25/04:00pm 24.9 19.4 6.1 30 9.8 SE 24 32 13 17 1021.2 1019.4 0.0
25/03:30pm 24.7 19.4 5.0 28 10.1 ESE 22 32 12 17 1021.2 1019.4 0.0
25/03:00pm 25.2 20.0 5.4 28 10.2 SE 22 35 12 19 1020.9 1019.0 0.0
25/02:30pm 25.9 20.8 6.0 28 10.5 ESE 22 32 12 17 1021.0 1019.1 0.0
25/02:00pm 24.9 20.1 5.7 29 10.0 ESE 20 30 11 16 1021.1 1019.2 0.0
25/01:30pm 24.3 18.6 6.6 32 9.3 SE 26 39 14 21 1021.2 1019.4 0.0
25/01:00pm 24.6 18.7 7.3 33 9.2 SE 28 39 15 21 1021.3 1019.5 0.0
25/12:30pm 24.5 19.3 7.2 33 9.2 ESE 24 35 13 19 1022.1 1020.2 0.0
25/12:00pm 24.3 18.8 7.4 34 9.0 SE 26 39 14 21 1022.4 1020.5 0.0
25/11:30am 24.5 18.9 7.2 33 9.2 ESE 26 35 14 19 1022.8 1020.9 0.0
25/11:00am 23.9 18.9 7.9 36 8.6 ESE 24 35 13 19 1023.2 1021.3 0.0
25/10:30am 23.1 18.9 9.8 43 7.4 ESE 22 32 12 17 1023.4 1021.6 0.0
25/10:00am 22.0 19.0 10.8 49 6.3 ESE 17 24 9 13 1023.5 1021.7 0.0
25/09:30am 21.2 18.2 10.7 51 5.9 ESE 17 22 9 12 1023.5 1021.7 0.0
25/09:00am 19.8 16.5 10.8 56 5.0 ESE 19 26 10 14 1023.4 1021.6 0.2
25/08:30am 18.4 15.5 11.0 62 4.1 ESE 17 20 9 11 1023.3 1021.4 0.2
25/08:00am 16.2 14.6 11.6 74 2.5 ESE 11 15 6 8 1023.0 1021.1 0.2
25/07:30am 14.3 13.1 11.6 84 1.5 SE 9 13 5 7 1022.8 1020.9 0.2
25/07:00am 13.2 12.0 11.6 90 0.9 S 9 11 5 6 1022.6 1020.7 0.2
25/06:30am 13.1 11.8 11.3 89 1.0 SSE 9 11 5 6 1022.4 1020.5 0.2
25/06:00am 13.3 13.5 11.7 90 0.9 ESE 2 9 1 5 1021.9 1020.0 0.2
25/05:30am 13.4 14.0 12.0 91 0.8 CALM 0 0 0 0 1021.9 1020.0 0.2
25/05:00am 13.6 12.9 12.0 90 0.9 E 7 9 4 5 1021.5 1019.7 0.2
25/04:30am 13.6 12.5 12.0 90 0.9 E 9 11 5 6 1021.3 1019.5 0.2
25/04:00am 14.1 13.5 12.3 89 1.0 S 7 9 4 5 1021.2 1019.4 0.2
25/03:30am 14.2 13.6 12.4 89 1.0 SSE 7 9 4 5 1021.0 1019.1 0.2
25/03:00am 14.3 13.8 12.5 89 1.0 SE 7 9 4 5 1020.6 1018.7 0.2
25/02:30am 14.7 14.2 12.7 88 1.1 SE 7 9 4 5 1020.5 1018.6 0.2
25/02:00am 14.9 14.4 12.6 86 1.3 ESE 7 9 4 5 1020.6 1018.7 0.2
25/01:30am 15.0 14.6 13.0 88 1.1 SE 7 7 4 4 1020.4 1018.5 0.2
25/01:00am 15.5 15.2 13.3 87 1.2 S 7 9 4 5 1020.3 1018.4 0.2
25/12:30am 15.8 16.9 13.5 86 1.3 CALM 0 0 0 0 1020.2 1018.3 0.2
25/12:00am 15.7 15.5 13.0 84 1.5 E 6 7 3 4 1020.1 1018.2 0.2
 
Date/Time
WST
Temp
°C
App
Temp
°C
Dew
Point
°C
Rel
Hum
%
Delta-T
°C
Wind Press
QNH
hPa
Press
MSL
hPa
Rain since
9am
mm
Dir  Spd
km/h
Gust
km/h
Spd
kts
Gust
kts
24/11:30pm 16.3 16.2 13.2 82 1.8 ESE 6 7 3 4 1019.9 1018.0 0.2
24/11:00pm 16.9 16.5 13.0 78 2.2 ESE 7 9 4 5 1020.0 1018.1 0.2
24/10:30pm 17.5 17.1 13.0 75 2.6 ESE 7 9 4 5 1020.1 1018.2 0.2
24/10:00pm 18.2 17.4 12.9 71 3.0 ESE 9 11 5 6 1020.1 1018.2 0.2
24/09:30pm 18.8 17.5 12.5 67 3.6 ESE 11 15 6 8 1020.0 1018.1 0.2
24/09:00pm 19.1 17.9 12.8 67 3.6 SE 11 15 6 8 1019.9 1018.0 0.2
24/08:30pm 19.7 18.1 12.7 64 4.0 SE 13 15 7 8 1019.8 1017.9 0.2
24/08:00pm 20.6 18.4 12.1 58 4.8 SE 15 19 8 10 1019.6 1017.7 0.2
24/07:30pm 21.1 19.0 12.3 57 5.0 ESE 15 19 8 10 1019.3 1017.4 0.2
24/07:00pm 21.8 19.1 11.8 53 5.7 SE 17 20 9 11 1018.9 1017.0 0.2
24/06:30pm 22.3 19.6 11.7 51 6.1 SE 17 19 9 10 1018.6 1016.7 0.2
24/06:00pm 22.9 19.8 11.6 49 6.4 SE 19 22 10 12 1018.1 1016.2 0.2
24/05:30pm 23.6 20.5 11.6 47 6.9 ESE 19 26 10 14 1017.7 1015.8 0.2
24/05:00pm 24.1 20.0 11.4 45 7.3 SE 24 32 13 17 1017.5 1015.6 0.2

Other Formats:

Comma delimited format used in spreadsheet applications
http://www.bom.gov.au/fwo/IDW60801/IDW60801.94429.axf

JavaScript Object Notation format (JSON) in row-major order
http://www.bom.gov.au/fwo/IDW60801/IDW60801.94429.json